createdAt,value
2019-05-18T00:02:52.113Z,52.67
2019-05-18T00:05:54.191Z,64.23
2019-05-18T00:08:56.150Z,70.60
2019-05-18T00:11:58.039Z,67.70
2019-05-18T00:15:02.153Z,75.83
2019-05-18T00:18:04.074Z,77.40
2019-05-18T00:21:06.011Z,71.83
2019-05-18T00:24:07.937Z,78.07
2019-05-18T00:27:09.870Z,82.50
2019-05-18T00:30:12.267Z,73.40
2019-05-18T00:33:14.179Z,82.10
2019-05-18T00:36:16.148Z,79.90
2019-05-18T00:39:18.051Z,84.43
2019-05-18T00:42:19.965Z,78.00
2019-05-18T00:45:21.900Z,85.47
2019-05-18T00:48:23.863Z,67.70
2019-05-18T00:51:25.830Z,78.40
2019-05-18T00:54:31.072Z,70.50
2019-05-18T00:57:33.034Z,60.67
2019-05-18T01:00:35.011Z,67.53
2019-05-18T01:03:36.951Z,69.70
2019-05-18T01:06:38.870Z,75.83
2019-05-18T01:09:40.823Z,69.80
2019-05-18T01:12:42.787Z,123.03
2019-05-18T01:15:44.706Z,318.23
2019-05-18T01:18:46.604Z,115.83
2019-05-18T01:21:48.560Z,73.40
2019-05-18T01:24:50.580Z,73.67
2019-05-18T01:27:52.599Z,72.80
2019-05-18T01:30:55.131Z,109.07
2019-05-18T01:33:57.078Z,83.57
2019-05-18T01:36:59.041Z,70.13
2019-05-18T01:40:00.945Z,76.47
2019-05-18T01:43:02.858Z,127.53
2019-05-18T01:46:04.932Z,109.23
2019-05-18T01:49:06.985Z,91.23
2019-05-18T01:52:08.933Z,103.30
2019-05-18T01:55:11.005Z,216.53
2019-05-18T01:58:13.006Z,131.17
2019-05-18T02:01:14.877Z,118.33
2019-05-18T02:04:16.877Z,137.07
2019-05-18T02:07:18.866Z,141.77
2019-05-18T02:10:20.871Z,125.57
2019-05-18T02:13:22.794Z,117.43
2019-05-18T02:16:24.786Z,147.40
2019-05-18T02:19:26.698Z,174.83
2019-05-18T02:22:28.622Z,255.00
2019-05-18T02:25:30.543Z,132.30
2019-05-18T02:28:32.470Z,137.27
2019-05-18T02:31:34.389Z,136.27
2019-05-18T02:34:36.494Z,513.53
2019-05-18T02:37:38.511Z,376.20
2019-05-18T02:40:40.431Z,128.93
2019-05-18T02:43:42.361Z,120.00
2019-05-18T02:46:44.345Z,170.17
2019-05-18T02:49:47.433Z,122.00
2019-05-18T02:52:49.350Z,183.07
2019-05-18T02:55:51.284Z,471.10
2019-05-18T02:58:53.400Z,492.43
2019-05-18T03:01:56.559Z,388.67
2019-05-18T03:04:58.671Z,461.93
2019-05-18T03:08:00.835Z,430.40
2019-05-18T03:11:02.748Z,293.37
2019-05-18T03:14:04.715Z,329.37
2019-05-18T03:17:06.623Z,376.27
2019-05-18T03:20:09.034Z,356.17
2019-05-18T03:23:10.932Z,378.37
2019-05-18T03:26:12.954Z,411.93
2019-05-18T03:29:16.028Z,514.20
2019-05-18T03:32:18.098Z,525.27
2019-05-18T03:35:20.184Z,544.30
2019-05-18T03:38:22.226Z,468.23
2019-05-18T03:41:24.188Z,349.50
2019-05-18T03:44:26.148Z,430.80
2019-05-18T03:47:28.072Z,356.07
2019-05-18T03:50:30.180Z,410.37
2019-05-18T03:53:32.145Z,415.87
2019-05-18T03:56:34.039Z,374.17
2019-05-18T03:59:35.949Z,334.43
2019-05-18T04:02:37.917Z,292.17
2019-05-18T04:05:39.831Z,196.43
2019-05-18T04:08:41.760Z,351.93
2019-05-18T04:11:43.628Z,230.13
2019-05-18T04:14:45.590Z,270.80
2019-05-18T04:17:47.491Z,188.83
2019-05-18T04:20:49.487Z,105.17
2019-05-18T04:23:51.459Z,139.90
2019-05-18T04:26:54.596Z,155.33
2019-05-18T04:29:56.515Z,116.87
2019-05-18T04:32:59.728Z,186.23
2019-05-18T04:36:01.649Z,113.93
2019-05-18T04:39:05.207Z,62.53
2019-05-18T04:42:07.238Z,59.27
2019-05-18T04:45:09.107Z,35.77
2019-05-18T04:48:11.072Z,31.43
2019-05-18T04:51:13.125Z,31.50
2019-05-18T04:54:15.074Z,27.30
2019-05-18T04:57:16.991Z,25.73
2019-05-18T05:00:19.132Z,24.63
2019-05-18T05:03:21.064Z,22.13
2019-05-18T05:06:23.001Z,19.07
2019-05-18T05:09:24.983Z,21.87
2019-05-18T05:12:26.938Z,21.77
2019-05-18T05:15:28.880Z,20.13
2019-05-18T05:18:30.765Z,18.43
2019-05-18T05:21:32.753Z,20.03
2019-05-18T05:24:34.788Z,17.47
2019-05-18T05:27:36.873Z,18.57
2019-05-18T05:30:38.953Z,17.73
2019-05-18T05:33:40.969Z,18.75
2019-05-18T05:36:42.944Z,20.43
2019-05-18T05:39:44.963Z,19.20
2019-05-18T05:42:46.943Z,19.85
2019-05-18T05:45:48.906Z,20.82
2019-05-18T05:48:50.826Z,18.80
2019-05-18T05:51:52.933Z,20.43
2019-05-18T05:54:54.854Z,18.57
2019-05-18T05:57:56.860Z,19.02
2019-05-18T06:00:58.883Z,20.57
2019-05-18T06:04:00.899Z,19.67
2019-05-18T06:07:02.827Z,18.25
2019-05-18T06:10:05.507Z,19.45
2019-05-18T06:13:07.475Z,17.37
2019-05-18T06:16:09.444Z,17.07
2019-05-18T06:19:11.436Z,16.85
2019-05-18T06:22:13.407Z,16.40
2019-05-18T06:25:15.469Z,15.53
2019-05-18T06:28:17.457Z,14.95
2019-05-18T06:31:22.821Z,14.70
2019-05-18T06:34:23.359Z,14.35
2019-05-18T06:37:25.302Z,14.83
2019-05-18T06:40:27.207Z,11.97
2019-05-18T06:43:29.281Z,11.18
2019-05-18T06:46:31.280Z,11.15
2019-05-18T06:49:33.248Z,12.00
2019-05-18T06:52:35.270Z,12.40
2019-05-18T06:55:38.155Z,11.22
2019-05-18T06:58:40.592Z,10.72
2019-05-18T07:01:43.078Z,13.05
2019-05-18T07:04:45.021Z,10.00
2019-05-18T07:07:46.965Z,11.48
2019-05-18T07:10:48.885Z,8.50
2019-05-18T07:13:50.875Z,10.20
2019-05-18T07:16:52.840Z,10.98
2019-05-18T07:19:54.826Z,8.23
2019-05-18T07:22:56.828Z,7.58
2019-05-18T07:25:58.761Z,8.33
2019-05-18T07:29:00.746Z,8.40
2019-05-18T07:32:02.669Z,7.15
2019-05-18T07:35:06.085Z,5.80
2019-05-18T07:38:07.952Z,6.60
2019-05-18T07:41:09.945Z,8.25
2019-05-18T07:44:11.875Z,7.47
2019-05-18T07:47:13.873Z,7.28
2019-05-18T07:50:17.422Z,7.25
2019-05-18T07:53:19.536Z,6.25
2019-05-18T07:56:21.495Z,6.58
2019-05-18T07:59:23.598Z,6.83
2019-05-18T08:02:25.746Z,7.30
2019-05-18T08:05:27.761Z,7.12
2019-05-18T08:08:29.729Z,7.58
2019-05-18T08:11:31.723Z,8.08
2019-05-18T08:14:33.690Z,8.53
2019-05-18T08:17:35.670Z,8.00
2019-05-18T08:20:37.624Z,8.20
2019-05-18T08:23:39.718Z,9.27
2019-05-18T08:26:41.683Z,8.83
2019-05-18T08:29:43.667Z,9.00
2019-05-18T08:32:45.660Z,7.83
2019-05-18T08:35:47.687Z,7.20
2019-05-18T08:38:49.650Z,6.80
2019-05-18T08:41:51.667Z,7.73
2019-05-18T08:44:53.563Z,6.00
2019-05-18T08:47:55.563Z,8.03
2019-05-18T08:50:57.530Z,7.30
2019-05-18T08:54:01.339Z,6.67
2019-05-18T08:57:03.199Z,8.13
2019-05-18T09:00:05.887Z,8.20
2019-05-18T09:03:07.827Z,7.63
2019-05-18T09:06:09.815Z,8.70
2019-05-18T09:09:11.730Z,9.00
2019-05-18T09:12:13.659Z,7.67
2019-05-18T09:15:15.747Z,9.20
2019-05-18T09:18:17.716Z,8.07
2019-05-18T09:21:19.707Z,6.87
2019-05-18T09:24:21.611Z,6.47
2019-05-18T09:27:23.627Z,8.43
2019-05-18T09:30:25.583Z,11.83
2019-05-18T09:33:27.544Z,13.30
2019-05-18T09:36:29.474Z,7.63
2019-05-18T09:39:31.506Z,12.57
2019-05-18T09:42:33.511Z,9.20
2019-05-18T09:45:35.533Z,10.73
2019-05-18T09:48:37.516Z,9.83
2019-05-18T09:51:39.536Z,12.67
2019-05-18T09:54:41.608Z,11.77
2019-05-18T09:57:43.509Z,10.73
2019-05-18T10:00:45.553Z,11.43
2019-05-18T10:03:47.509Z,12.43
2019-05-18T10:06:49.521Z,12.23
2019-05-18T10:09:51.490Z,14.53
2019-05-18T10:12:53.406Z,10.80
2019-05-18T10:15:55.413Z,11.97
2019-05-18T10:18:57.443Z,10.30
2019-05-18T10:21:59.380Z,11.33
2019-05-18T10:25:01.325Z,9.50
2019-05-18T10:28:03.265Z,11.47
2019-05-18T10:31:05.223Z,17.63
2019-05-18T10:34:07.174Z,10.70
2019-05-18T10:37:09.093Z,10.40
2019-05-18T10:40:11.276Z,11.03
2019-05-18T10:43:13.235Z,8.90
2019-05-18T10:46:15.811Z,10.77
2019-05-18T10:49:17.694Z,12.90
2019-05-18T10:52:19.648Z,12.60
2019-05-18T10:55:21.700Z,11.03
2019-05-18T10:58:23.636Z,12.83
2019-05-18T11:01:25.602Z,9.93
2019-05-18T11:04:27.623Z,11.03
2019-05-18T11:07:29.597Z,11.30
2019-05-18T11:10:31.582Z,12.93
2019-05-18T11:13:33.615Z,10.33
2019-05-18T11:16:35.586Z,11.57
2019-05-18T11:19:38.719Z,11.27
2019-05-18T11:22:40.780Z,11.13
2019-05-18T11:25:42.750Z,10.30
2019-05-18T11:28:44.784Z,10.07
2019-05-18T11:31:46.817Z,9.67
2019-05-18T11:34:48.755Z,9.73
2019-05-18T11:37:50.771Z,10.70
2019-05-18T11:40:52.729Z,10.93
2019-05-18T11:43:54.628Z,10.43
2019-05-18T11:46:56.672Z,13.17
2019-05-18T11:49:58.790Z,11.20
2019-05-18T11:53:00.782Z,10.13
2019-05-18T11:56:02.834Z,11.73
2019-05-18T11:59:04.781Z,12.50
2019-05-18T12:02:06.839Z,10.27
2019-05-18T12:05:08.812Z,9.87
2019-05-18T12:08:11.822Z,10.93
2019-05-18T12:11:13.786Z,11.40
2019-05-18T12:14:15.787Z,10.90
2019-05-18T12:17:17.717Z,11.10
2019-05-18T12:20:19.671Z,12.10
2019-05-18T12:23:21.585Z,11.03
2019-05-18T12:26:23.623Z,12.33
2019-05-18T12:29:25.587Z,12.50
2019-05-18T12:32:27.552Z,10.80
2019-05-18T12:35:29.464Z,10.60
2019-05-18T12:38:31.462Z,12.37
2019-05-18T12:41:34.550Z,14.03
2019-05-18T12:44:36.507Z,12.10
2019-05-18T12:47:38.445Z,10.70
2019-05-18T12:50:40.487Z,11.87
2019-05-18T12:53:42.476Z,12.40
2019-05-18T12:56:44.588Z,13.20
2019-05-18T12:59:46.477Z,10.07
2019-05-18T13:02:48.540Z,10.07
2019-05-18T13:05:50.471Z,13.70
2019-05-18T13:08:52.470Z,12.17
2019-05-18T13:11:54.382Z,11.87
2019-05-18T13:14:56.449Z,13.93
2019-05-18T13:17:58.364Z,12.77
2019-05-18T13:21:00.335Z,11.40
2019-05-18T13:24:02.260Z,12.97
2019-05-18T13:27:04.299Z,11.27
2019-05-18T13:30:08.808Z,13.17
2019-05-18T13:33:10.946Z,12.87
2019-05-18T13:36:13.113Z,12.27
2019-05-18T13:39:15.061Z,11.10
2019-05-18T13:42:17.143Z,12.20
2019-05-18T13:45:19.157Z,10.13
2019-05-18T13:48:21.136Z,10.53
2019-05-18T13:51:23.272Z,11.13
2019-05-18T13:54:25.265Z,10.17
2019-05-18T13:57:27.271Z,13.17
2019-05-18T14:00:29.223Z,10.97
2019-05-18T14:03:31.201Z,11.60
2019-05-18T14:06:33.227Z,11.93
2019-05-18T14:09:36.522Z,13.33
2019-05-18T14:12:38.485Z,15.47
2019-05-18T14:15:40.511Z,10.97
2019-05-18T14:18:42.446Z,10.47
2019-05-18T14:21:44.427Z,9.90
2019-05-18T14:24:46.489Z,10.40
2019-05-18T14:27:48.614Z,12.37
2019-05-18T14:30:50.553Z,12.03
2019-05-18T14:33:52.551Z,9.43
2019-05-18T14:36:54.649Z,10.03
2019-05-18T14:39:56.632Z,9.53
2019-05-18T14:42:58.621Z,9.83
2019-05-18T14:46:00.513Z,12.93
2019-05-18T14:49:02.618Z,9.37
2019-05-18T14:52:04.699Z,8.90
2019-05-18T14:55:06.874Z,8.97
2019-05-18T14:58:08.867Z,10.70
2019-05-18T15:01:10.845Z,13.70
2019-05-18T15:04:12.736Z,9.40
2019-05-18T15:07:14.858Z,8.63
2019-05-18T15:10:16.950Z,8.43
2019-05-18T15:13:19.463Z,8.83
2019-05-18T15:16:21.432Z,9.27
2019-05-18T15:19:24.221Z,9.23
2019-05-18T15:22:26.193Z,11.27
2019-05-18T15:25:28.235Z,9.20
2019-05-18T15:28:30.213Z,8.97
2019-05-18T15:31:32.341Z,9.30
2019-05-18T15:34:34.320Z,16.37
2019-05-18T15:37:37.722Z,8.60
2019-05-18T15:40:39.624Z,8.60
2019-05-18T15:43:41.668Z,7.70
2019-05-18T15:46:43.625Z,9.07
2019-05-18T15:49:45.627Z,8.87
2019-05-18T15:52:47.576Z,9.20
2019-05-18T15:55:49.507Z,15.90
2019-05-18T15:58:51.563Z,9.10
2019-05-18T16:01:53.561Z,8.53
2019-05-18T16:04:55.509Z,8.33
2019-05-18T16:07:57.797Z,9.77
2019-05-18T16:10:59.739Z,9.20
2019-05-18T16:14:01.686Z,8.43
2019-05-18T16:17:03.589Z,8.80
2019-05-18T16:20:06.445Z,9.33
2019-05-18T16:23:08.392Z,7.90
2019-05-18T16:26:21.093Z,9.50
2019-05-18T16:29:14.293Z,8.27
2019-05-18T16:32:16.253Z,7.30
2019-05-18T16:35:18.279Z,9.03
2019-05-18T16:38:20.176Z,7.83
2019-05-18T16:41:22.158Z,9.47
2019-05-18T16:44:24.069Z,8.73
2019-05-18T16:47:26.068Z,7.87
2019-05-18T16:50:28.086Z,7.07
2019-05-18T16:53:29.981Z,11.07
2019-05-18T16:56:35.199Z,8.20
2019-05-18T16:59:35.918Z,10.57
2019-05-18T17:02:37.981Z,9.80
2019-05-18T17:05:41.220Z,8.73
2019-05-18T17:08:43.201Z,7.37
2019-05-18T17:11:48.028Z,8.27
2019-05-18T17:14:49.096Z,9.40
2019-05-18T17:17:51.249Z,8.30
2019-05-18T17:20:54.519Z,9.37
2019-05-18T17:23:56.631Z,8.57
2019-05-18T17:26:58.717Z,9.20
2019-05-18T17:30:00.648Z,9.47
2019-05-18T17:33:02.627Z,10.57
2019-05-18T17:36:04.617Z,8.57
2019-05-18T17:39:06.621Z,7.37
2019-05-18T17:42:08.565Z,8.57
2019-05-18T17:45:11.301Z,7.57
2019-05-18T17:48:13.270Z,13.50
2019-05-18T17:51:15.226Z,28.03
2019-05-18T17:54:17.235Z,49.20
2019-05-18T17:57:19.185Z,78.10
2019-05-18T18:00:22.436Z,97.60
2019-05-18T18:03:24.392Z,87.03
2019-05-18T18:06:26.410Z,37.00
2019-05-18T18:09:28.352Z,17.53
2019-05-18T18:12:30.271Z,64.30
2019-05-18T18:15:34.067Z,50.20
2019-05-18T18:18:36.007Z,80.27
2019-05-18T18:21:38.122Z,85.30
2019-05-18T18:24:40.082Z,85.07
2019-05-18T18:27:45.173Z,53.47
2019-05-18T18:30:47.145Z,53.67
2019-05-18T18:33:50.938Z,24.93
2019-05-18T18:36:52.865Z,15.17
2019-05-18T18:39:54.875Z,12.10
2019-05-18T18:42:58.665Z,18.20
2019-05-18T18:46:00.620Z,16.40
2019-05-18T18:49:02.673Z,26.17
2019-05-18T18:52:04.640Z,26.00
2019-05-18T18:55:07.635Z,16.07
2019-05-18T18:58:09.544Z,14.77
2019-05-18T19:01:13.923Z,12.70
2019-05-18T19:04:16.963Z,22.27
2019-05-18T19:07:19.896Z,33.67
2019-05-18T19:10:21.899Z,55.77
2019-05-18T19:13:23.839Z,29.17
2019-05-18T19:16:27.498Z,14.67
2019-05-18T19:19:29.895Z,15.83
2019-05-18T19:22:34.867Z,14.83
2019-05-18T19:25:36.833Z,13.13
2019-05-18T19:28:38.814Z,15.57
2019-05-18T19:31:41.992Z,18.33
2019-05-18T19:34:45.303Z,20.10
2019-05-18T19:37:49.066Z,15.23
2019-05-18T19:40:51.123Z,29.37
2019-05-18T19:43:54.154Z,32.60
2019-05-18T19:46:56.438Z,20.33
2019-05-18T19:49:58.382Z,25.33
2019-05-18T19:53:02.363Z,42.70
2019-05-18T19:56:04.471Z,25.27
2019-05-18T19:59:06.510Z,275.07
2019-05-18T20:02:08.545Z,124.57
2019-05-18T20:05:13.811Z,29.33
2019-05-18T20:08:15.722Z,35.93
2019-05-18T20:11:17.706Z,40.83
2019-05-18T20:14:19.606Z,19.33
2019-05-18T20:17:24.163Z,17.13
2019-05-18T20:20:26.161Z,16.07
2019-05-18T20:23:28.694Z,24.53
2019-05-18T20:26:31.177Z,21.97
2019-05-18T20:29:34.548Z,21.17
2019-05-18T20:32:36.880Z,24.27
2019-05-18T20:35:38.993Z,23.53
2019-05-18T20:38:42.921Z,22.07
2019-05-18T20:41:44.980Z,21.43
2019-05-18T20:44:46.936Z,22.30
2019-05-18T20:47:48.957Z,18.20
2019-05-18T20:50:50.873Z,20.10
2019-05-18T20:53:53.387Z,20.80
2019-05-18T20:56:57.838Z,27.93
2019-05-18T20:59:59.870Z,25.47
2019-05-18T21:03:02.135Z,23.07
2019-05-18T21:06:04.226Z,18.07
2019-05-18T21:09:06.191Z,17.97
2019-05-18T21:12:08.232Z,20.93
2019-05-18T21:15:11.573Z,20.93
2019-05-18T21:18:13.753Z,25.70
2019-05-18T21:21:15.665Z,33.00
2019-05-18T21:24:17.578Z,37.30
2019-05-18T21:27:19.674Z,32.13
2019-05-18T21:30:21.876Z,27.73
2019-05-18T21:33:23.830Z,32.23
2019-05-18T21:36:25.803Z,30.50
2019-05-18T21:39:27.827Z,36.23
2019-05-18T21:42:29.745Z,29.70
2019-05-18T21:45:31.636Z,30.13
2019-05-18T21:48:33.619Z,30.77
2019-05-18T21:51:35.978Z,29.87
2019-05-18T21:54:37.914Z,25.10
2019-05-18T21:57:39.904Z,27.30
2019-05-18T22:00:46.102Z,25.83
2019-05-18T22:03:48.430Z,27.83
2019-05-18T22:06:50.354Z,26.53
2019-05-18T22:09:53.775Z,28.20
2019-05-18T22:12:56.105Z,26.57
2019-05-18T22:15:58.110Z,27.77
2019-05-18T22:19:00.143Z,27.43
2019-05-18T22:22:02.132Z,22.90
2019-05-18T22:25:04.084Z,25.20
2019-05-18T22:28:06.098Z,27.63
2019-05-18T22:31:08.061Z,25.07
2019-05-18T22:34:10.031Z,27.07
2019-05-18T22:37:11.943Z,28.83
2019-05-18T22:40:13.846Z,28.57
2019-05-18T22:43:15.828Z,27.70
2019-05-18T22:46:17.725Z,28.83
2019-05-18T22:49:19.707Z,37.03
2019-05-18T22:52:22.272Z,26.83
2019-05-18T22:55:24.146Z,26.77
2019-05-18T22:58:26.278Z,30.13
2019-05-18T23:01:28.261Z,27.10
2019-05-18T23:04:30.715Z,24.23
2019-05-18T23:07:32.734Z,26.63
2019-05-18T23:10:34.748Z,24.80
2019-05-18T23:13:36.708Z,26.00
2019-05-18T23:16:38.657Z,23.50
2019-05-18T23:19:40.605Z,25.13
2019-05-18T23:22:42.552Z,27.70
2019-05-18T23:25:44.486Z,24.67
2019-05-18T23:28:46.462Z,25.20
2019-05-18T23:31:48.499Z,22.97
2019-05-18T23:34:50.518Z,25.03
2019-05-18T23:37:52.555Z,23.93
2019-05-18T23:40:54.592Z,24.67
2019-05-18T23:43:56.581Z,28.80
2019-05-18T23:46:58.622Z,28.87
2019-05-18T23:50:00.554Z,27.23
2019-05-18T23:53:02.560Z,30.50
2019-05-18T23:56:04.462Z,30.40
2019-05-18T23:59:06.504Z,29.97
